KMGY/MGY METAR and TAF weather

Enter ICAO airport designator
Station Type Date Time Source
KMGY METAR 2022/11/30 11:09 UTC NOAA

KMGY 301109Z AUTO 30020G28KT 10SM SCT006 OVC011 03/01 A2975 RMK AO2 PK WND 28030/1054 PRESRR T00330011


Station Type Date Time Source
KMGY Decoded METAR 2022/11/30 11:09 UTC NOAA

DAYTON WRIGHT BROTHERS AIRPORT , OH, United States (KMGY) 39-36N 84-14W 289M
Nov 30, 2022 - 06:09 AM EST / 2022.11.30 1109 UTC
Wind: from the WNW (300 degrees) at 23 MPH (20 KT) gusting to 32 MPH (28 KT):0
Visibility: 10 mile(s):0
Sky conditions: overcast
Temperature: 37.9 F (3.3 C)
Dew Point: 34.0 F (1.1 C)
Relative Humidity: 85%
Pressure (altimeter): 29.75 in. Hg (1007 hPa)
Pressure tendency: rising rapidly
ob: KMGY 301109Z AUTO 30020G28KT 10SM SCT006 OVC011 03/01 A2975 RMK AO2 PK WND 28030/1054 PRESRR T00330011
cycle: 11

Station Type Date Time Source
KMGY TAF UTC NOAA

Error!

Example: see airport list